Time;durP1;ratioP1;P1;durP2;ratioP2;P2;SDS_P1;SDS_P2;PMS_P1;PMS_P2;Temp;Humidity;BMP_temperature;BMP_pressure;BME280_temperature;BME280_humidity;BME280_pressure;Samples;Min_cycle;Max_cycle;Signal;HPM_P1;HPM_P2
2022/09/12 00:02:35;;;;;;;15.88;12.10;;;;;;;13.18;66.25;100093.94;10390493;28;20061;-80
2022/09/12 00:07:37;;;;;;;18.13;12.35;;;;;;;13.23;65.77;100092.66;10395667;28;20085;-80
2022/09/12 00:12:39;;;;;;;40.15;14.98;;;;;;;13.21;65.63;100088.47;10394540;28;20045;-80
2022/09/12 00:17:41;;;;;;;53.45;14.95;;;;;;;13.07;65.92;100085.97;10396165;28;20077;-80
2022/09/12 00:22:42;;;;;;;116.30;13.63;;;;;;;13.07;66.45;100076.28;10393067;28;20142;-80
2022/09/12 00:27:44;;;;;;;92.05;14.43;;;;;;;13.12;66.11;100075.97;10394200;28;20234;-80
2022/09/12 00:32:46;;;;;;;41.25;11.52;;;;;;;13.14;66.24;100074.91;10382283;28;20139;-80
2022/09/12 00:37:48;;;;;;;255.75;19.08;;;;;;;13.02;66.18;100069.66;10390342;28;20144;-80
2022/09/12 00:42:49;;;;;;;55.28;12.48;;;;;;;13.04;66.40;100073.88;10391256;28;20550;-80
2022/09/12 00:47:52;;;;;;;223.60;13.80;;;;;;;13.03;66.50;100073.97;10391506;28;20045;-80
2022/09/12 00:52:58;;;;;;;348.48;23.10;;;;;;;12.95;66.93;100071.84;10400827;28;20463;-80
2022/09/12 00:58:06;;;;;;;182.93;15.68;;;;;;;12.87;67.12;100064.50;10390489;28;20533;-79
2022/09/12 01:03:13;;;;;;;395.63;21.90;;;;;;;12.77;67.25;100065.22;10388086;28;20061;-80
2022/09/12 01:08:16;;;;;;;226.48;17.75;;;;;;;12.83;67.22;100057.78;10397225;28;20045;-79
2022/09/12 01:13:18;;;;;;;219.45;14.50;;;;;;;12.90;67.29;100053.78;10396258;28;20092;-79
2022/09/12 01:18:33;;;;;;;62.50;10.43;;;;;;;12.91;67.32;100049.38;10390716;28;20045;-80
2022/09/12 01:23:46;;;;;;;331.80;19.92;;;;;;;12.95;67.15;100045.59;10393059;28;20088;-79
2022/09/12 01:28:51;;;;;;;123.32;11.32;;;;;;;12.98;67.07;100040.16;10388312;28;20140;-79
2022/09/12 01:33:59;;;;;;;327.17;14.82;;;;;;;12.90;67.22;100042.47;10389704;28;20593;-79
2022/09/12 01:39:04;;;;;;;224.20;12.27;;;;;;;12.90;67.09;100043.28;10391126;28;20112;-79
2022/09/12 01:44:14;;;;;;;433.92;20.58;;;;;;;12.79;67.27;100040.53;10388379;28;20479;-79
2022/09/12 01:49:25;;;;;;;535.70;21.50;;;;;;;12.76;67.41;100040.75;10384417;28;20049;-79
2022/09/12 01:54:42;;;;;;;269.42;12.18;;;;;;;12.78;67.43;100038.03;10390386;28;20045;-79
2022/09/12 01:59:48;;;;;;;347.58;20.73;;;;;;;12.78;66.96;100030.97;10388729;28;20132;-79
2022/09/12 02:05:09;;;;;;;186.07;12.10;;;;;;;12.63;67.64;100033.78;10395036;28;20056;-79
2022/09/12 02:10:14;;;;;;;285.15;17.40;;;;;;;12.58;67.87;100031.47;10393766;28;20445;-79
2022/09/12 02:15:19;;;;;;;325.88;17.75;;;;;;;12.70;67.50;100025.41;10397315;28;20037;-79
2022/09/12 02:20:32;;;;;;;63.10;9.25;;;;;;;12.75;67.52;100019.84;10395577;28;20061;-79
2022/09/12 02:25:53;;;;;;;161.02;11.63;;;;;;;12.82;67.09;100016.69;10396425;28;20495;-79
2022/09/12 02:31:19;;;;;;;22.15;8.40;;;;;;;12.75;67.22;100015.44;10395434;28;20458;-79
2022/09/12 02:36:28;;;;;;;27.48;9.88;;;;;;;12.86;67.23;100019.97;10394558;28;20124;-79
2022/09/12 02:41:30;;;;;;;158.60;13.35;;;;;;;12.82;67.03;100011.44;10395867;28;20674;-79
2022/09/12 02:46:47;;;;;;;90.13;12.00;;;;;;;12.96;67.17;100024.47;10398627;28;20875;-79
2022/09/12 02:51:49;;;;;;;164.15;13.90;;;;;;;12.98;67.20;100016.53;10396558;28;20150;-79
2022/09/12 02:56:51;;;;;;;232.27;16.30;;;;;;;13.00;67.27;100013.78;10395076;28;20073;-79
2022/09/12 03:02:14;;;;;;;185.25;14.70;;;;;;;12.98;67.53;100013.91;10392300;28;20165;-79
2022/09/12 03:07:44;;;;;;;174.77;15.55;;;;;;;13.03;68.04;100017.03;10390024;28;20473;-79
2022/09/12 03:13:00;;;;;;;215.73;13.35;;;;;;;13.11;67.85;100013.91;10387930;28;20135;-79
2022/09/12 03:18:09;;;;;;;142.75;14.85;;;;;;;13.10;67.58;100010.44;10398508;28;20046;-80
2022/09/12 03:23:33;;;;;;;202.65;14.55;;;;;;;12.89;67.96;100012.72;10388760;28;20463;-79
2022/09/12 03:28:36;;;;;;;272.75;17.75;;;;;;;13.01;67.95;100016.31;10394536;28;20136;-78
2022/09/12 03:33:38;;;;;;;254.68;17.30;;;;;;;12.93;67.88;100014.22;10393773;28;20183;-79
2022/09/12 03:38:39;;;;;;;228.07;21.25;;;;;;;13.04;67.89;100017.88;10397048;28;20053;-79
2022/09/12 03:43:41;;;;;;;229.48;16.60;;;;;;;12.91;67.84;100013.47;10390263;28;20146;-78
2022/09/12 03:48:43;;;;;;;134.10;15.20;;;;;;;13.06;68.18;100011.59;10397909;28;20485;-78
2022/09/12 03:53:45;;;;;;;214.57;20.60;;;;;;;13.21;67.83;100013.13;10395795;28;20053;-78
2022/09/12 03:58:47;;;;;;;184.32;18.80;;;;;;;13.22;67.27;100016.63;10394094;28;20473;-79
2022/09/12 04:03:50;;;;;;;395.20;23.08;;;;;;;13.18;67.43;100012.53;10394803;28;20053;-79
2022/09/12 04:08:54;;;;;;;469.55;28.75;;;;;;;13.24;67.52;100014.72;10395490;28;20887;-78
2022/09/12 04:13:55;;;;;;;289.67;22.13;;;;;;;13.21;67.18;100020.19;10394124;28;20077;-78
2022/09/12 04:18:57;;;;;;;153.80;14.50;;;;;;;13.21;67.39;100017.56;10394320;28;20396;-78
2022/09/12 04:24:00;;;;;;;203.60;16.65;;;;;;;13.20;67.30;100018.50;10394269;28;20053;-78
2022/09/12 04:29:02;;;;;;;228.55;16.60;;;;;;;13.19;67.29;100020.28;10391197;28;20739;-79
2022/09/12 04:34:04;;;;;;;43.03;11.93;;;;;;;13.24;67.96;100022.59;10378233;28;20104;-79
2022/09/12 04:39:06;;;;;;;208.60;19.70;;;;;;;13.30;67.48;100019.53;10389250;28;20132;-78
2022/09/12 04:44:13;;;;;;;321.23;27.30;;;;;;;13.34;67.31;100015.75;10400707;28;20192;-78
2022/09/12 04:49:16;;;;;;;140.68;22.27;;;;;;;13.28;67.79;100021.44;10396571;28;20140;-78
2022/09/12 04:54:18;;;;;;;231.13;22.88;;;;;;;13.31;67.30;100010.75;10396450;28;20057;-78
2022/09/12 04:59:21;;;;;;;293.38;31.58;;;;;;;13.23;67.41;100013.06;10397638;28;20153;-79
2022/09/12 05:04:23;;;;;;;181.05;18.52;;;;;;;13.14;67.75;100008.44;10391236;28;20140;-79
2022/09/12 05:15:57;;;;;;;124.88;18.92;;;;;;;13.13;67.98;100017.25;10395618;28;20582;-78
2022/09/12 05:21:02;;;;;;;552.00;39.75;;;;;;;13.08;67.55;100020.19;10394390;28;20089;-78
2022/09/12 05:26:05;;;;;;;254.52;20.20;;;;;;;13.16;68.06;100017.88;10390839;28;20049;-78
2022/09/12 05:31:13;;;;;;;382.30;32.58;;;;;;;13.20;67.92;100021.97;10397173;28;20130;-78
2022/09/12 05:36:20;;;;;;;260.77;21.23;;;;;;;13.14;68.38;100008.44;10391578;28;20056;-78
2022/09/12 05:41:24;;;;;;;481.73;34.80;;;;;;;13.23;67.90;99992.88;10394234;28;20199;-79
2022/09/12 05:46:34;;;;;;;465.58;38.17;;;;;;;13.23;67.99;100002.56;10401075;28;20092;-79
2022/09/12 05:51:40;;;;;;;307.37;26.10;;;;;;;13.26;68.06;100002.31;10394841;28;20057;-78
2022/09/12 05:56:43;;;;;;;332.10;31.88;;;;;;;13.28;68.20;100000.44;10392704;28;20045;-78
2022/09/12 06:01:45;;;;;;;218.90;24.63;;;;;;;13.14;68.25;100013.69;10394302;28;20566;-78
2022/09/12 06:06:47;;;;;;;258.30;20.30;;;;;;;13.04;68.21;100018.72;10394817;28;20049;-79
2022/09/12 06:11:52;;;;;;;464.65;32.92;;;;;;;13.01;68.36;100016.31;10377674;28;20060;-79
2022/09/12 06:16:55;;;;;;;297.23;33.90;;;;;;;13.01;68.73;100024.19;10394141;28;20423;-79
2022/09/12 06:21:57;;;;;;;298.13;25.15;;;;;;;13.04;68.37;100013.47;10393147;28;20139;-79
2022/09/12 06:27:01;;;;;;;141.95;24.92;;;;;;;13.07;68.54;100008.00;10389382;28;20062;-78
2022/09/12 06:32:03;;;;;;;98.38;19.00;;;;;;;13.26;68.31;100011.06;10386196;28;20049;-79
2022/09/12 06:37:05;;;;;;;98.65;20.50;;;;;;;13.49;67.93;100009.47;10391155;28;20111;-78
2022/09/12 06:42:07;;;;;;;87.95;20.35;;;;;;;13.64;67.43;100016.25;10393737;28;20081;-79
2022/09/12 06:47:08;;;;;;;121.85;21.00;;;;;;;13.55;67.49;100019.56;10393273;28;20097;-79
2022/09/12 06:52:10;;;;;;;87.18;22.75;;;;;;;13.59;67.19;100008.72;10393729;28;20837;-79
2022/09/12 06:57:12;;;;;;;52.20;19.83;;;;;;;13.74;67.14;100019.91;10394728;28;20060;-79
2022/09/12 07:02:14;;;;;;;73.75;21.23;;;;;;;13.79;66.82;100017.81;10401674;28;20053;-80
2022/09/12 07:07:16;;;;;;;88.15;21.60;;;;;;;14.04;66.12;100014.25;10401579;28;20057;-79
2022/09/12 07:12:21;;;;;;;45.72;19.52;;;;;;;14.15;65.54;100023.03;10391550;28;20061;-79
2022/09/12 07:17:24;;;;;;;58.38;23.70;;;;;;;14.31;65.63;100015.69;10395002;28;20613;-79
2022/09/12 07:22:26;;;;;;;32.15;20.58;;;;;;;14.49;65.31;100008.28;10400715;28;20053;-79
2022/09/12 07:27:27;;;;;;;32.60;18.30;;;;;;;14.37;64.97;99999.47;10397794;28;20561;-79
2022/09/12 07:32:29;;;;;;;47.35;19.30;;;;;;;14.45;64.73;99997.09;10399338;28;20573;-80
2022/09/12 07:37:31;;;;;;;60.72;23.73;;;;;;;14.27;64.99;100016.03;10399347;28;20111;-80
2022/09/12 07:42:33;;;;;;;30.75;18.23;;;;;;;14.52;64.98;100008.88;10396027;28;20135;-80
2022/09/12 07:47:37;;;;;;;30.40;20.65;;;;;;;14.82;64.14;99999.66;10397253;28;20045;-80
2022/09/12 07:52:39;;;;;;;33.00;21.35;;;;;;;14.92;63.64;100000.63;10398487;28;20119;-80
2022/09/12 07:57:41;;;;;;;47.10;26.05;;;;;;;14.88;63.48;100000.00;10398493;28;20053;-80
2022/09/12 08:02:43;;;;;;;30.23;20.75;;;;;;;15.07;63.12;99997.63;10398064;28;20153;-79
2022/09/12 08:07:45;;;;;;;26.38;19.42;;;;;;;15.39;62.67;99995.13;10405513;28;20068;-80
2022/09/12 08:12:47;;;;;;;25.50;18.90;;;;;;;15.76;61.92;99993.91;10396171;28;20136;-80
2022/09/12 08:17:49;;;;;;;28.63;20.92;;;;;;;15.63;61.75;100016.97;10397936;28;20064;-80
2022/09/12 08:22:51;;;;;;;26.85;20.60;;;;;;;15.70;61.56;100027.84;10401472;28;20057;-80
2022/09/12 08:27:54;;;;;;;26.15;20.40;;;;;;;15.71;61.29;100021.63;10397224;28;20486;-80
2022/09/12 08:32:56;;;;;;;22.02;17.35;;;;;;;16.33;60.15;100020.00;10395789;28;20085;-83
2022/09/12 08:37:57;;;;;;;24.05;18.35;;;;;;;16.21;60.22;100021.88;10394643;28;20140;-84
2022/09/12 08:43:12;;;;;;;22.02;18.08;;;;;;;16.59;59.58;100010.00;10399200;28;20513;-83
2022/09/12 08:48:14;;;;;;;19.33;16.20;;;;;;;17.09;58.93;100013.63;10394783;28;20115;-82
2022/09/12 08:53:22;;;;;;;20.40;16.30;;;;;;;17.82;57.16;100001.88;10395731;28;20119;-83
2022/09/12 08:58:26;;;;;;;18.85;15.98;;;;;;;18.33;55.56;100006.13;10396719;28;20053;-84
2022/09/12 09:03:46;;;;;;;21.55;17.23;;;;;;;18.21;55.74;100004.59;10396328;28;20053;-83
2022/09/12 09:09:26;;;;;;;21.58;17.83;;;;;;;18.19;55.44;99991.50;10391990;28;20859;-83
2022/09/12 09:14:53;;;;;;;17.33;14.65;;;;;;;18.56;54.56;99983.69;10396779;28;20172;-84
2022/09/12 09:20:05;;;;;;;16.77;14.52;;;;;;;18.99;53.78;99983.19;10394518;28;20080;-84
2022/09/12 09:25:47;;;;;;;17.73;14.65;;;;;;;19.22;52.90;99974.78;10395682;28;20136;-84
2022/09/12 09:30:49;;;;;;;21.65;14.38;;;;;;;19.08;53.42;99967.28;10402854;28;20045;-84
2022/09/12 09:36:21;;;;;;;18.17;14.68;;;;;;;18.94;53.03;99970.38;10397974;28;20542;-84
2022/09/12 09:41:36;;;;;;;17.90;13.98;;;;;;;19.29;52.96;99962.63;10394099;28;20127;-84
2022/09/12 09:46:38;;;;;;;16.58;11.60;;;;;;;19.84;52.88;99952.00;10394362;28;20053;-84
2022/09/12 09:51:41;;;;;;;15.65;12.52;;;;;;;19.73;52.43;99944.22;10396208;28;20450;-84
2022/09/12 09:56:44;;;;;;;18.58;12.40;;;;;;;19.92;52.68;99934.34;10395439;28;20057;-84
2022/09/12 10:01:55;;;;;;;15.82;11.60;;;;;;;20.53;50.89;99915.78;10392264;28;20123;-85
2022/09/12 10:07:01;;;;;;;15.30;12.38;;;;;;;20.45;50.93;99915.72;10391236;28;20046;-84
2022/09/12 10:12:27;;;;;;;14.93;12.15;;;;;;;20.59;50.19;99917.84;10399359;28;20180;-83
2022/09/12 10:17:39;;;;;;;14.73;11.48;;;;;;;20.91;49.87;99918.03;10394371;28;20068;-83
2022/09/12 10:22:46;;;;;;;14.65;10.90;;;;;;;21.35;49.23;99909.97;10390183;28;20057;-83
2022/09/12 10:27:54;;;;;;;14.77;11.63;;;;;;;21.61;48.34;99913.38;10385740;28;20438;-82
2022/09/12 10:33:05;;;;;;;15.93;11.48;;;;;;;21.61;49.00;99908.06;10385512;28;20056;-82
2022/09/12 10:38:22;;;;;;;11.93;9.75;;;;;;;21.69;48.50;99894.78;10383613;28;20080;-83
2022/09/12 10:43:24;;;;;;;12.88;9.55;;;;;;;21.43;48.90;99883.41;10394952;28;20060;-82
2022/09/12 10:48:31;;;;;;;12.90;9.25;;;;;;;21.47;49.05;99882.91;10378516;28;20056;-84
2022/09/12 10:53:41;;;;;;;12.80;9.50;;;;;;;21.22;49.50;99877.63;10384692;28;20049;-83
2022/09/12 10:58:59;;;;;;;12.43;8.27;;;;;;;21.21;49.00;99875.97;10381380;28;20141;-82
2022/09/12 11:04:30;;;;;;;13.25;8.20;;;;;;;21.37;49.52;99873.41;10384967;28;20141;-82
2022/09/12 11:09:34;;;;;;;;;;;;;;;21.29;49.55;99866.22;10381754;28;20065;-82
2022/09/12 11:14:46;;;;;;;9.35;7.05;;;;;;;21.77;48.80;99854.84;10383364;28;19924;-82
2022/09/12 11:20:18;;;;;;;9.05;6.72;;;;;;;21.92;47.93;99847.03;10383211;28;20045;-83
2022/09/12 11:25:34;;;;;;;8.25;6.20;;;;;;;22.11;47.65;99836.91;10381569;28;20139;-83
2022/09/12 11:30:52;;;;;;;6.22;4.78;;;;;;;22.28;45.93;99835.91;10380553;28;20060;-83
2022/09/12 11:35:57;;;;;;;8.52;4.60;;;;;;;22.54;44.39;99833.84;10381658;28;20061;-83
2022/09/12 11:41:07;;;;;;;6.40;4.70;;;;;;;22.69;43.63;99829.50;10385017;28;20060;-83
2022/09/12 11:46:35;;;;;;;7.53;4.17;;;;;;;22.79;43.26;99821.31;10393613;28;20534;-84
2022/09/12 11:51:57;;;;;;;7.18;4.40;;;;;;;22.87;43.58;99809.78;10388320;28;20057;-83
2022/09/12 11:57:07;;;;;;;5.82;4.30;;;;;;;22.71;42.08;99805.31;10391072;28;20103;-83
2022/09/12 12:02:16;;;;;;;7.22;3.55;;;;;;;22.71;40.88;99800.00;10391683;28;20076;-84
2022/09/12 12:07:18;;;;;;;5.20;3.45;;;;;;;22.94;41.51;99795.59;10393357;28;20053;-84
2022/09/12 12:12:26;;;;;;;8.10;3.60;;;;;;;23.07;40.55;99789.69;10391619;28;20057;-83
2022/09/12 12:17:29;;;;;;;4.50;3.50;;;;;;;23.01;40.63;99777.03;10387968;28;20049;-83
2022/09/12 12:22:33;;;;;;;5.72;3.53;;;;;;;23.02;40.33;99773.38;10387285;28;20057;-83
2022/09/12 12:27:42;;;;;;;4.63;3.00;;;;;;;23.15;39.28;99770.97;10387443;28;20050;-84
2022/09/12 12:32:45;;;;;;;5.60;2.78;;;;;;;23.43;38.76;99764.16;10390011;28;20968;-86
2022/09/12 12:37:51;;;;;;;4.95;2.90;;;;;;;23.31;38.40;99765.53;10394670;28;20049;-85
2022/09/12 12:43:03;;;;;;;3.97;2.90;;;;;;;23.43;37.30;99743.63;10395582;28;20574;-85
2022/09/12 12:48:14;;;;;;;5.00;2.65;;;;;;;23.65;37.78;99736.63;10396125;28;20049;-84
2022/09/12 12:53:19;;;;;;;5.90;2.88;;;;;;;23.67;36.89;99733.75;10395559;28;20057;-85
2022/09/12 12:58:37;;;;;;;6.15;2.90;;;;;;;23.89;36.23;99736.41;10396698;28;20131;-84
2022/09/12 13:04:00;;;;;;;4.60;2.67;;;;;;;23.99;36.35;99725.44;10396357;28;20067;-85
2022/09/12 13:09:07;;;;;;;5.13;3.00;;;;;;;24.17;35.89;99720.59;10385047;28;20057;-84
2022/09/12 13:14:36;;;;;;;4.72;3.30;;;;;;;24.08;34.99;99719.84;10392629;28;20144;-84
2022/09/12 13:19:39;;;;;;;5.22;3.05;;;;;;;24.10;36.04;99719.69;10393896;28;20423;-84
2022/09/12 13:24:47;;;;;;;5.32;3.40;;;;;;;24.22;35.69;99713.72;10403173;28;20068;-84
2022/09/12 13:30:04;;;;;;;4.45;2.88;;;;;;;24.24;35.72;99695.66;10392550;28;20049;-85
2022/09/12 13:35:15;;;;;;;5.28;2.42;;;;;;;24.22;34.16;99692.34;10392967;28;20155;-85
2022/09/12 13:40:25;;;;;;;5.03;2.50;;;;;;;24.27;34.69;99695.28;10391301;28;20091;-85
2022/09/12 13:45:27;;;;;;;3.38;2.33;;;;;;;24.44;34.65;99684.38;10394731;28;20064;-84
2022/09/12 13:50:40;;;;;;;4.10;2.63;;;;;;;24.62;34.62;99679.47;10389054;28;20049;-85
2022/09/12 13:55:46;;;;;;;4.32;2.55;;;;;;;24.53;33.72;99677.94;10394216;28;20057;-85
2022/09/12 14:01:14;;;;;;;4.50;2.60;;;;;;;24.55;33.39;99671.34;10393710;28;20057;-85
2022/09/12 14:06:47;;;;;;;3.92;2.50;;;;;;;24.53;33.27;99669.91;10395077;28;20057;-85
2022/09/12 14:11:50;;;;;;;4.80;2.47;;;;;;;24.55;34.34;99665.19;10393572;28;20418;-85
2022/09/12 14:16:53;;;;;;;7.38;2.40;;;;;;;24.59;34.21;99658.47;10392563;28;20052;-85
2022/09/12 14:21:56;;;;;;;3.42;2.38;;;;;;;24.76;33.78;99654.56;10392296;28;20057;-85
2022/09/12 14:26:58;;;;;;;3.53;2.40;;;;;;;24.67;33.71;99648.47;10393283;28;20056;-85
2022/09/12 14:32:04;;;;;;;4.95;2.67;;;;;;;24.64;34.23;99637.31;10402319;28;20073;-85
2022/09/12 14:37:06;;;;;;;6.38;2.70;;;;;;;24.57;34.11;99631.06;10387054;28;20049;-86
2022/09/12 14:42:21;;;;;;;4.18;2.60;;;;;;;24.61;33.38;99633.16;10391773;28;20054;-86
2022/09/12 14:47:27;;;;;;;4.53;2.80;;;;;;;24.53;33.54;99638.63;10399073;28;20053;-86
2022/09/12 14:52:33;;;;;;;3.97;2.63;;;;;;;24.51;33.65;99634.50;10392839;28;20049;-86
2022/09/12 14:57:39;;;;;;;4.28;2.35;;;;;;;24.50;34.38;99644.38;10390013;28;20057;-85
2022/09/12 15:02:45;;;;;;;4.80;2.70;;;;;;;24.60;34.03;99633.38;10388839;28;20061;-85
2022/09/12 15:07:59;;;;;;;4.60;2.50;;;;;;;24.69;33.23;99624.22;10395086;28;20083;-84
2022/09/12 15:13:08;;;;;;;3.60;2.40;;;;;;;24.85;33.61;99614.16;10381559;28;20080;-84
2022/09/12 15:18:10;;;;;;;4.05;2.50;;;;;;;24.89;34.42;99619.94;10394508;28;20045;-84
2022/09/12 15:23:29;;;;;;;7.93;2.35;;;;;;;25.01;33.50;99623.75;10395308;28;20072;-83
2022/09/12 15:28:34;;;;;;;3.17;2.10;;;;;;;24.60;32.67;99615.47;10389420;28;20924;-83
2022/09/12 15:33:37;;;;;;;3.45;2.35;;;;;;;24.67;33.37;99612.88;10367407;28;20049;-83
2022/09/12 15:38:39;;;;;;;3.38;2.22;;;;;;;24.63;32.85;99604.41;10388451;28;20103;-83
2022/09/12 15:43:41;;;;;;;4.00;2.20;;;;;;;24.52;33.19;99590.69;10389232;28;20089;-84
2022/09/12 15:48:43;;;;;;;3.22;2.25;;;;;;;24.47;32.99;99582.44;10395721;28;20050;-84
2022/09/12 15:53:47;;;;;;;3.30;1.90;;;;;;;24.46;33.11;99583.44;10391372;28;20049;-83
2022/09/12 15:58:50;;;;;;;5.20;2.03;;;;;;;24.39;33.05;99579.88;10397145;28;20921;-83
2022/09/12 16:04:02;;;;;;;3.25;1.92;;;;;;;24.13;33.90;99573.19;10393143;28;20065;-84
2022/09/12 16:09:04;;;;;;;3.70;2.08;;;;;;;24.07;34.02;99575.78;10395189;28;20046;-84
2022/09/12 16:14:06;;;;;;;3.80;2.20;;;;;;;24.09;34.82;99579.91;10395279;28;20053;-83
2022/09/12 16:19:08;;;;;;;2.75;2.03;;;;;;;23.94;34.34;99580.94;10397243;28;20061;-84
2022/09/12 16:24:10;;;;;;;3.97;2.20;;;;;;;23.72;34.36;99576.50;10396183;28;20058;-84
2022/09/12 16:29:14;;;;;;;3.50;2.13;;;;;;;23.65;35.03;99576.41;10393266;28;20740;-85
2022/09/12 16:34:19;;;;;;;5.53;2.20;;;;;;;23.49;35.38;99584.59;10394794;28;20045;-86
2022/09/12 16:39:21;;;;;;;7.05;2.17;;;;;;;23.32;36.03;99569.72;10393009;28;20079;-87
2022/09/12 16:44:23;;;;;;;2.80;2.10;;;;;;;23.18;36.07;99573.19;10398878;28;20087;-87
2022/09/12 16:49:25;;;;;;;2.70;1.80;;;;;;;22.94;36.52;99573.41;10398373;28;20457;-87
2022/09/12 16:54:27;;;;;;;4.90;2.33;;;;;;;22.68;37.80;99571.06;10400530;28;20112;-87
2022/09/12 16:59:28;;;;;;;6.28;2.40;;;;;;;22.48;37.74;99576.03;10398652;28;20042;-87
2022/09/12 17:04:30;;;;;;;4.90;2.40;;;;;;;22.22;38.28;99569.34;10397885;28;20119;-87
2022/09/12 17:09:32;;;;;;;3.13;2.00;;;;;;;21.94;39.25;99566.28;10396956;28;20049;-87
2022/09/12 17:14:34;;;;;;;5.70;2.50;;;;;;;21.73;39.65;99560.69;10399604;28;20054;-87
2022/09/12 17:19:36;;;;;;;4.97;2.40;;;;;;;21.56;40.33;99561.75;10398984;28;20049;-87
2022/09/12 17:24:39;;;;;;;4.18;2.38;;;;;;;21.51;40.51;99556.13;10393281;28;20132;-86
2022/09/12 17:29:41;;;;;;;5.55;2.50;;;;;;;21.42;40.66;99557.97;10396741;28;20049;-86
2022/09/12 17:34:43;;;;;;;4.22;2.35;;;;;;;21.27;40.79;99566.78;10391232;28;20096;-85
2022/09/12 17:39:46;;;;;;;5.10;2.65;;;;;;;21.05;41.71;99560.28;10382744;28;20049;-85
2022/09/12 17:44:57;;;;;;;4.50;2.58;;;;;;;20.85;41.93;99556.31;10383251;28;20140;-84
2022/09/12 17:50:04;;;;;;;4.43;2.70;;;;;;;20.65;43.31;99563.78;10384757;28;20060;-85
2022/09/12 17:55:26;;;;;;;5.80;2.70;;;;;;;20.46;42.80;99555.28;10384848;28;20529;-84
2022/09/12 18:05:55;;;;;;;4.53;2.67;;;;;;;20.10;44.61;99562.63;10383502;28;20212;-84
2022/09/12 18:11:05;;;;;;;5.53;3.20;;;;;;;19.97;44.35;99556.97;10391434;28;20135;-85
2022/09/12 18:16:09;;;;;;;5.78;3.30;;;;;;;19.75;45.10;99571.56;10391341;28;20149;-85
2022/09/12 18:21:11;;;;;;;6.72;2.88;;;;;;;19.51;44.93;99578.56;10391142;28;20050;-86
2022/09/12 18:26:13;;;;;;;4.00;2.80;;;;;;;19.39;46.16;99573.56;10395459;28;20170;-86
2022/09/12 18:31:18;;;;;;;4.47;3.00;;;;;;;19.32;46.60;99579.59;10393745;28;20550;-85
2022/09/12 18:36:20;;;;;;;4.25;3.00;;;;;;;19.23;46.99;99578.75;10396571;28;20633;-85
2022/09/12 18:41:23;;;;;;;5.22;2.95;;;;;;;19.13;47.84;99580.66;10396517;28;20079;-83
2022/09/12 18:46:27;;;;;;;7.55;3.80;;;;;;;18.94;48.30;99579.97;10392550;28;20064;-84
2022/09/12 18:51:38;;;;;;;5.60;3.22;;;;;;;18.81;49.31;99584.81;10374285;28;20148;-84
2022/09/12 18:56:50;;;;;;;6.15;3.20;;;;;;;18.71;50.01;99573.47;10387535;28;20132;-83
2022/09/12 19:01:55;;;;;;;5.35;3.13;;;;;;;18.61;50.54;99581.47;10386213;28;20515;-83
2022/09/12 19:06:58;;;;;;;7.05;3.08;;;;;;;18.56;51.41;99584.56;10382593;28;20103;-83
2022/09/12 19:12:00;;;;;;;4.85;2.75;;;;;;;18.41;51.47;99596.69;10375468;28;20045;-83
2022/09/12 19:17:02;;;;;;;8.25;3.30;;;;;;;18.21;52.34;99589.00;10390832;28;20121;-83
2022/09/12 19:22:04;;;;;;;7.20;3.10;;;;;;;17.93;52.81;99585.50;10390741;28;20049;-83
2022/09/12 19:27:08;;;;;;;5.25;3.50;;;;;;;17.79;53.38;99586.78;10388698;28;20459;-82
2022/09/12 19:32:14;;;;;;;5.32;3.60;;;;;;;17.68;53.84;99576.41;10378760;28;20054;-83
2022/09/12 19:37:17;;;;;;;5.10;3.70;;;;;;;17.60;54.40;99571.03;10383430;28;20046;-83
2022/09/12 19:42:21;;;;;;;7.43;4.00;;;;;;;17.47;54.49;99567.84;10377089;28;20049;-83
2022/09/12 19:47:24;;;;;;;6.68;3.63;;;;;;;17.29;55.10;99548.41;10382775;28;20459;-83
2022/09/12 19:52:25;;;;;;;4.82;3.83;;;;;;;17.25;55.60;99539.09;10380210;28;20514;-83
2022/09/12 19:57:28;;;;;;;11.15;3.90;;;;;;;16.95;55.90;99537.50;10372548;28;20049;-83
2022/09/12 20:02:30;;;;;;;8.40;4.10;;;;;;;16.93;56.47;99544.72;10376054;28;20050;-83
2022/09/12 20:07:31;;;;;;;13.13;4.07;;;;;;;16.99;56.63;99540.69;10390146;28;20164;-83
2022/09/12 20:12:34;;;;;;;5.53;3.90;;;;;;;16.97;56.73;99542.63;10390464;28;20625;-82
2022/09/12 20:17:37;;;;;;;9.43;4.32;;;;;;;16.90;56.88;99550.28;10381504;28;20137;-83
2022/09/12 20:22:38;;;;;;;7.38;4.45;;;;;;;16.62;57.87;99539.72;10390030;28;20578;-83
2022/09/12 20:27:40;;;;;;;7.40;4.60;;;;;;;16.28;58.55;99546.34;10389368;28;20060;-82
2022/09/12 20:32:43;;;;;;;11.57;4.55;;;;;;;16.11;59.17;99543.41;10388135;28;20303;-82
2022/09/12 20:37:45;;;;;;;8.63;4.43;;;;;;;16.26;58.96;99535.09;10387921;28;20049;-82
2022/09/12 20:42:47;;;;;;;7.25;4.43;;;;;;;16.36;58.74;99534.13;10391978;28;20056;-82
2022/09/12 20:47:50;;;;;;;8.05;4.30;;;;;;;16.42;58.87;99540.66;10379632;28;20522;-83
2022/09/12 20:53:00;;;;;;;6.07;4.47;;;;;;;16.33;58.86;99533.56;10384894;28;20065;-82
2022/09/12 20:58:02;;;;;;;7.00;4.40;;;;;;;16.12;59.20;99528.41;10386873;28;21028;-82
2022/09/12 21:03:04;;;;;;;10.98;4.75;;;;;;;15.94;59.23;99522.09;10384773;28;20526;-82
2022/09/12 21:08:05;;;;;;;6.55;4.63;;;;;;;15.71;59.71;99529.44;10393067;28;20053;-82
2022/09/12 21:13:11;;;;;;;8.55;4.47;;;;;;;15.81;59.66;99542.63;10391974;28;20053;-82
2022/09/12 21:18:13;;;;;;;6.25;4.43;;;;;;;15.89;59.57;99529.59;10394604;28;20046;-81
2022/09/12 21:23:15;;;;;;;7.78;4.57;;;;;;;15.84;59.79;99510.69;10395907;28;20053;-82
2022/09/12 21:28:17;;;;;;;6.97;4.30;;;;;;;15.84;59.48;99519.44;10392729;28;20054;-82
2022/09/12 21:33:20;;;;;;;8.73;5.05;;;;;;;15.85;59.71;99526.41;10403537;28;20064;-82
2022/09/12 21:38:21;;;;;;;6.35;4.80;;;;;;;15.86;59.69;99520.16;10395188;28;20053;-81
2022/09/12 21:43:23;;;;;;;7.68;4.60;;;;;;;15.80;59.86;99515.41;10394738;28;20064;-82
2022/09/12 21:48:37;;;;;;;6.32;4.70;;;;;;;15.75;60.21;99522.06;10394643;28;20053;-82
2022/09/12 21:53:39;;;;;;;8.73;4.70;;;;;;;15.78;59.96;99527.06;10390349;28;20057;-81
2022/09/12 21:58:40;;;;;;;10.10;5.00;;;;;;;15.73;60.30;99527.50;10395170;28;20407;-82
2022/09/12 22:03:43;;;;;;;7.18;4.70;;;;;;;15.64;60.53;99533.53;10392918;28;20065;-81
2022/09/12 22:08:45;;;;;;;8.40;5.50;;;;;;;15.51;60.28;99535.56;10396077;28;20060;-82
2022/09/12 22:13:47;;;;;;;7.10;5.05;;;;;;;15.21;61.02;99538.16;10392827;28;20671;-81
2022/09/12 22:18:49;;;;;;;11.43;4.70;;;;;;;15.25;60.98;99539.56;10394046;28;20062;-82
2022/09/12 22:29:14;;;;;;;9.65;5.25;;;;;;;15.12;61.29;99521.31;10392731;28;20056;-82
2022/09/12 22:34:44;;;;;;;9.90;5.18;;;;;;;15.08;61.75;99519.91;10393718;28;20503;-81
2022/09/12 22:39:46;;;;;;;6.72;5.10;;;;;;;15.16;61.47;99514.84;10394741;28;20488;-81
2022/09/12 22:44:48;;;;;;;9.95;5.88;;;;;;;15.15;61.25;99504.44;10392337;28;20053;-81
2022/09/12 22:49:53;;;;;;;6.03;5.10;;;;;;;15.06;61.46;99502.59;10392001;28;20072;-81
2022/09/12 22:54:56;;;;;;;11.02;5.80;;;;;;;14.91;61.53;99498.63;10393440;28;20057;-81
2022/09/12 22:59:57;;;;;;;10.35;5.93;;;;;;;14.78;62.01;99482.19;10392340;28;21002;-82
2022/09/12 23:04:59;;;;;;;11.45;6.30;;;;;;;14.62;62.78;99501.06;10392310;28;20423;-81
2022/09/12 23:10:01;;;;;;;9.30;6.10;;;;;;;14.66;62.52;99520.03;10391598;28;20423;-81
2022/09/12 23:15:03;;;;;;;8.02;5.53;;;;;;;14.75;62.35;99528.03;10392841;28;20168;-81
2022/09/12 23:20:05;;;;;;;7.35;5.60;;;;;;;14.67;62.63;99516.47;10390208;28;20431;-81
2022/09/12 23:25:07;;;;;;;8.18;5.47;;;;;;;14.58;62.54;99520.69;10389776;28;20533;-81
2022/09/12 23:30:10;;;;;;;9.35;5.47;;;;;;;14.62;62.48;99511.56;10392501;28;20580;-81
2022/09/12 23:35:11;;;;;;;7.90;5.38;;;;;;;14.66;62.19;99506.88;10392904;28;20061;-81
2022/09/12 23:40:13;;;;;;;7.13;5.53;;;;;;;14.58;62.39;99500.47;10398223;28;20049;-81